createdAt,value
2023-04-14T00:00:53.580Z,94300.82
2023-04-14T00:03:21.952Z,94301.58
2023-04-14T00:05:50.396Z,94299.29
2023-04-14T00:08:18.513Z,94300.59
2023-04-14T00:10:46.551Z,94301.08
2023-04-14T00:13:14.550Z,94299.35
2023-04-14T00:15:42.763Z,94298.45
2023-04-14T00:18:11.121Z,94298.17
2023-04-14T00:20:39.192Z,94296.77
2023-04-14T00:23:07.085Z,94293.73
2023-04-14T00:25:35.003Z,94290.83
2023-04-14T00:28:03.700Z,94289.29
2023-04-14T00:30:31.752Z,94289.87
2023-04-14T00:32:59.667Z,94283.51
2023-04-14T00:35:27.642Z,94282.88
2023-04-14T00:37:57.229Z,94283.09
2023-04-14T00:40:25.319Z,94280.65
2023-04-14T00:42:53.252Z,94278.22
2023-04-14T00:45:21.404Z,94271.71
2023-04-14T00:47:50.853Z,94270.20
2023-04-14T00:50:19.686Z,94266.95
2023-04-14T00:52:49.396Z,94267.87
2023-04-14T00:55:19.041Z,94266.98
2023-04-14T00:57:47.094Z,94269.23
2023-04-14T01:00:15.913Z,94270.48
2023-04-14T01:02:44.160Z,94280.34
2023-04-14T01:05:12.743Z,94279.87
2023-04-14T01:07:41.560Z,94284.59
2023-04-14T01:10:11.277Z,94277.98
2023-04-14T01:12:48.049Z,94271.36
2023-04-14T01:15:29.191Z,94260.41
2023-04-14T01:18:09.210Z,94262.27
2023-04-14T01:20:42.612Z,94257.41
2023-04-14T01:23:17.645Z,94256.79
2023-04-14T01:26:04.670Z,94257.34
2023-04-14T01:28:48.315Z,94257.02
2023-04-14T01:31:16.873Z,94254.11
2023-04-14T01:33:48.256Z,94248.74
2023-04-14T01:36:22.499Z,94244.35
2023-04-14T01:38:52.814Z,94246.89
2023-04-14T01:41:22.014Z,94245.10
2023-04-14T01:43:53.990Z,94248.55
2023-04-14T01:46:22.120Z,94245.97
2023-04-14T01:48:51.767Z,94238.95
2023-04-14T01:51:21.498Z,94236.34
2023-04-14T01:53:49.873Z,94228.50
2023-04-14T01:56:19.133Z,94225.69
2023-04-14T01:58:48.400Z,94222.02
2023-04-14T02:01:17.628Z,94227.48
2023-04-14T02:03:46.751Z,94232.63
2023-04-14T02:06:15.614Z,94238.05
2023-04-14T02:08:44.268Z,94249.55
2023-04-14T02:11:13.802Z,94253.97
2023-04-14T02:13:43.464Z,94254.08
2023-04-14T02:16:11.860Z,94248.73
2023-04-14T02:18:41.701Z,94253.88
2023-04-14T02:21:12.081Z,94249.07
2023-04-14T02:23:40.066Z,94245.41
2023-04-14T02:26:13.761Z,94248.58
2023-04-14T02:28:52.797Z,94240.23
2023-04-14T02:31:23.920Z,94233.72
2023-04-14T02:33:53.855Z,94229.19
2023-04-14T02:36:29.480Z,94224.70
2023-04-14T02:39:10.463Z,94219.52
2023-04-14T02:41:40.631Z,94226.35
2023-04-14T02:44:19.192Z,94229.20
2023-04-14T02:47:07.980Z,94224.95
2023-04-14T02:49:47.895Z,94223.00
2023-04-14T02:52:17.851Z,94228.30
2023-04-14T02:54:48.170Z,94232.65
2023-04-14T02:57:17.039Z,94236.74
2023-04-14T02:59:47.572Z,94239.04
2023-04-14T03:02:16.519Z,94237.91
2023-04-14T03:04:47.366Z,94231.44
2023-04-14T03:07:32.308Z,94237.35
2023-04-14T03:10:00.764Z,94245.66
2023-04-14T03:12:29.611Z,94238.95
2023-04-14T03:14:59.529Z,94232.32
2023-04-14T03:17:27.626Z,94230.34
2023-04-14T03:19:56.543Z,94229.14
2023-04-14T03:22:27.207Z,94221.42
2023-04-14T03:24:59.151Z,94229.46
2023-04-14T03:27:30.522Z,94227.73
2023-04-14T03:30:01.769Z,94224.02
2023-04-14T03:32:33.472Z,94225.24
2023-04-14T03:35:02.194Z,94219.12
2023-04-14T03:37:31.879Z,94211.30
2023-04-14T03:40:02.198Z,94198.00
2023-04-14T03:42:34.184Z,94188.56
2023-04-14T03:45:03.933Z,94184.77
2023-04-14T03:47:32.996Z,94183.66
2023-04-14T03:50:02.803Z,94177.88
2023-04-14T03:52:34.303Z,94173.04
2023-04-14T03:55:06.558Z,94172.86
2023-04-14T03:57:36.759Z,94175.15
2023-04-14T04:00:06.044Z,94180.63
2023-04-14T04:02:42.504Z,94185.66
2023-04-14T04:05:11.611Z,94188.02
2023-04-14T04:07:40.662Z,94185.45
2023-04-14T04:10:09.148Z,94188.16
2023-04-14T04:12:38.351Z,94191.13
2023-04-14T04:15:07.962Z,94188.34
2023-04-14T04:17:37.377Z,94193.82
2023-04-14T04:20:07.365Z,94196.05
2023-04-14T04:22:38.210Z,94201.74
2023-04-14T04:25:07.973Z,94205.97
2023-04-14T04:27:36.766Z,94207.33
2023-04-14T04:30:14.996Z,94208.17
2023-04-14T04:32:42.990Z,94207.27
2023-04-14T04:35:12.407Z,94201.77
2023-04-14T04:37:43.197Z,94194.66
2023-04-14T04:40:12.076Z,94188.79
2023-04-14T04:42:43.881Z,94182.77
2023-04-14T04:45:19.619Z,94183.10
2023-04-14T04:47:47.582Z,94187.29
2023-04-14T04:50:17.366Z,94190.23
2023-04-14T04:52:46.888Z,94197.09
2023-04-14T04:55:14.903Z,94203.11
2023-04-14T04:57:43.486Z,94206.03
2023-04-14T05:00:12.024Z,94206.66
2023-04-14T05:02:40.023Z,94207.72
2023-04-14T05:05:08.882Z,94213.42
2023-04-14T05:07:36.883Z,94214.38
2023-04-14T05:10:05.133Z,94211.05
2023-04-14T05:12:33.078Z,94206.36
2023-04-14T05:15:01.284Z,94205.61
2023-04-14T05:17:29.249Z,94203.00
2023-04-14T05:19:57.798Z,94200.41
2023-04-14T05:22:25.712Z,94195.56
2023-04-14T05:24:53.629Z,94194.63
2023-04-14T05:27:22.077Z,94195.62
2023-04-14T05:29:50.447Z,94196.10
2023-04-14T05:32:18.955Z,94195.83
2023-04-14T05:34:46.950Z,94196.35
2023-04-14T05:37:14.931Z,94191.91
2023-04-14T05:39:43.021Z,94184.48
2023-04-14T05:42:11.217Z,94183.02
2023-04-14T05:44:39.125Z,94184.53
2023-04-14T05:47:07.029Z,94184.47
2023-04-14T05:49:35.157Z,94178.86
2023-04-14T05:52:03.281Z,94184.33
2023-04-14T05:54:31.266Z,94183.54
2023-04-14T05:56:59.453Z,94180.77
2023-04-14T05:59:27.502Z,94177.50
2023-04-14T06:01:55.709Z,94169.93
2023-04-14T06:04:24.070Z,94168.29
2023-04-14T06:06:52.112Z,94165.21
2023-04-14T06:09:20.094Z,94165.93
2023-04-14T06:11:48.102Z,94161.36
2023-04-14T06:14:16.028Z,94157.31
2023-04-14T06:16:43.983Z,94156.23
2023-04-14T06:19:12.119Z,94156.17
2023-04-14T06:21:40.293Z,94159.16
2023-04-14T06:24:08.248Z,94153.66
2023-04-14T06:26:37.114Z,94149.61
2023-04-14T06:29:07.561Z,94148.66
2023-04-14T06:31:36.554Z,94135.73
2023-04-14T06:34:04.687Z,94134.23
2023-04-14T06:36:32.947Z,94128.02
2023-04-14T06:39:01.604Z,94127.11
2023-04-14T06:41:29.913Z,94135.80
2023-04-14T06:43:57.907Z,94143.94
2023-04-14T06:46:26.459Z,94146.67
2023-04-14T06:48:54.640Z,94148.25
2023-04-14T06:51:22.543Z,94146.17
2023-04-14T06:53:50.434Z,94137.09
2023-04-14T06:56:18.356Z,94134.08
2023-04-14T06:58:46.421Z,94135.05
2023-04-14T07:01:14.481Z,94132.35
2023-04-14T07:03:43.330Z,94132.15
2023-04-14T07:06:12.236Z,94126.52
2023-04-14T07:08:40.741Z,94129.83
2023-04-14T07:11:10.459Z,94127.86
2023-04-14T07:13:38.851Z,94128.83
2023-04-14T07:16:07.365Z,94125.22
2023-04-14T07:18:36.412Z,94122.90
2023-04-14T07:21:04.708Z,94120.35
2023-04-14T07:23:33.792Z,94106.73
2023-04-14T07:26:02.178Z,94099.02
2023-04-14T07:28:30.159Z,94101.46
2023-04-14T07:30:58.315Z,94105.94
2023-04-14T07:33:30.454Z,94101.13
2023-04-14T07:36:03.344Z,94088.52
2023-04-14T07:38:33.366Z,94083.89
2023-04-14T07:41:05.890Z,94087.72
2023-04-14T07:43:37.202Z,94087.10
2023-04-14T07:46:06.830Z,94082.64
2023-04-14T07:48:36.278Z,94086.69
2023-04-14T07:51:04.756Z,94084.09
2023-04-14T07:53:33.299Z,94080.84
2023-04-14T07:56:01.314Z,94078.80
2023-04-14T07:58:30.031Z,94073.67
2023-04-14T08:00:58.832Z,94078.39
2023-04-14T08:03:27.332Z,94078.00
2023-04-14T08:05:56.518Z,94074.10
2023-04-14T08:08:25.231Z,94070.54
2023-04-14T08:10:53.472Z,94064.16
2023-04-14T08:13:21.824Z,94057.45
2023-04-14T08:15:49.854Z,94053.16
2023-04-14T08:18:18.172Z,94057.73
2023-04-14T08:20:46.491Z,94054.59
2023-04-14T08:23:14.583Z,94054.70
2023-04-14T08:25:43.023Z,94048.41
2023-04-14T08:28:11.399Z,94045.11
2023-04-14T08:30:40.387Z,94039.88
2023-04-14T08:33:08.523Z,94037.27
2023-04-14T08:35:41.530Z,94036.19
2023-04-14T08:38:11.376Z,94035.59
2023-04-14T08:40:40.954Z,94033.83
2023-04-14T08:43:10.597Z,94030.59
2023-04-14T08:45:40.184Z,94024.34
2023-04-14T08:48:08.487Z,94011.02
2023-04-14T08:50:37.631Z,94003.27
2023-04-14T08:53:08.666Z,94007.05
2023-04-14T08:55:40.486Z,94008.98
2023-04-14T08:58:10.954Z,94005.57
2023-04-14T09:00:40.488Z,93998.27
2023-04-14T09:03:09.623Z,93989.55
2023-04-14T09:05:38.371Z,93990.34
2023-04-14T09:08:06.342Z,93995.81
2023-04-14T09:10:35.936Z,93995.48
2023-04-14T09:13:04.694Z,93989.27
2023-04-14T09:15:32.620Z,93987.77
2023-04-14T09:18:00.709Z,93984.77
2023-04-14T09:20:37.434Z,93990.65
2023-04-14T09:23:08.858Z,93989.09
2023-04-14T09:25:38.637Z,93987.20
2023-04-14T09:28:06.613Z,93977.20
2023-04-14T09:30:35.036Z,93965.28
2023-04-14T09:33:07.310Z,93963.83
2023-04-14T09:35:49.287Z,93965.42
2023-04-14T09:38:36.600Z,93971.79
2023-04-14T09:41:08.155Z,93972.23
2023-04-14T09:43:36.931Z,93972.74
2023-04-14T09:46:06.505Z,93967.83
2023-04-14T09:48:36.705Z,93967.58
2023-04-14T09:51:07.395Z,93967.17
2023-04-14T09:53:36.694Z,93969.39
2023-04-14T09:56:06.317Z,93971.14
2023-04-14T09:58:35.281Z,93973.39
2023-04-14T10:01:05.022Z,93975.39
2023-04-14T10:03:34.851Z,93974.73
2023-04-14T10:06:04.947Z,93972.45
2023-04-14T10:08:34.363Z,93963.58
2023-04-14T10:11:14.024Z,93963.77
2023-04-14T10:13:43.067Z,93959.45
2023-04-14T10:16:11.577Z,93956.59
2023-04-14T10:18:40.214Z,93961.74
2023-04-14T10:21:08.701Z,93964.45
2023-04-14T10:23:38.424Z,93978.58
2023-04-14T10:26:07.444Z,93984.89
2023-04-14T10:28:36.266Z,93989.77
2023-04-14T10:31:06.488Z,93990.23
2023-04-14T10:33:36.657Z,93991.13
2023-04-14T10:36:05.134Z,93985.39
2023-04-14T10:38:44.030Z,93984.63
2023-04-14T10:41:12.965Z,93988.43
2023-04-14T10:43:41.750Z,93983.94
2023-04-14T10:46:10.257Z,93985.16
2023-04-14T10:48:39.627Z,93983.85
2023-04-14T10:51:09.881Z,93983.67
2023-04-14T10:53:47.822Z,93985.92
2023-04-14T10:56:16.215Z,93985.40
2023-04-14T10:58:54.402Z,93988.48
2023-04-14T11:01:24.292Z,93988.94
2023-04-14T11:03:53.760Z,93984.69
2023-04-14T11:06:50.411Z,93991.23
2023-04-14T11:09:29.950Z,93990.89
2023-04-14T11:12:03.087Z,93993.04
2023-04-14T11:14:31.768Z,93991.20
2023-04-14T11:17:04.047Z,93995.83
2023-04-14T11:19:33.411Z,93993.42
2023-04-14T11:22:01.438Z,93990.65
2023-04-14T11:24:29.543Z,93993.02
2023-04-14T11:27:00.169Z,93987.73
2023-04-14T11:29:28.200Z,93989.27
2023-04-14T11:32:03.219Z,93992.59
2023-04-14T11:34:31.319Z,93992.61
2023-04-14T11:37:01.812Z,93993.09
2023-04-14T11:39:30.094Z,93989.86
2023-04-14T11:42:01.183Z,93992.57
2023-04-14T11:44:30.455Z,93986.04
2023-04-14T11:46:58.434Z,93988.50
2023-04-14T11:49:33.584Z,93984.89
2023-04-14T11:52:05.741Z,93981.64
2023-04-14T11:54:39.755Z,93979.59
2023-04-14T11:57:11.252Z,93981.27
2023-04-14T11:59:41.360Z,93977.20
2023-04-14T12:02:16.401Z,93975.74
2023-04-14T12:04:50.248Z,93973.94
2023-04-14T12:07:19.473Z,93972.05
2023-04-14T12:09:49.066Z,93969.05
2023-04-14T12:12:18.584Z,93968.63
2023-04-14T12:14:49.977Z,93965.50
2023-04-14T12:17:20.543Z,93966.80
2023-04-14T12:19:49.179Z,93960.94
2023-04-14T12:22:27.942Z,93963.48
2023-04-14T12:24:57.008Z,93968.67
2023-04-14T12:27:26.704Z,93977.31
2023-04-14T12:29:54.741Z,93973.64
2023-04-14T12:32:23.333Z,93979.56
2023-04-14T12:34:55.230Z,93985.98
2023-04-14T12:37:27.254Z,93990.48
2023-04-14T12:40:01.189Z,93994.04
2023-04-14T12:42:43.113Z,93995.42
2023-04-14T12:45:11.804Z,93998.23
2023-04-14T12:47:39.898Z,93996.61
2023-04-14T12:50:30.793Z,94007.95
2023-04-14T12:53:00.414Z,94001.00
2023-04-14T12:55:29.827Z,94011.67
2023-04-14T12:57:58.678Z,94011.80
2023-04-14T13:00:27.805Z,94016.02
2023-04-14T13:02:56.875Z,94016.27
2023-04-14T13:05:25.109Z,94021.29
2023-04-14T13:07:53.102Z,94021.19
2023-04-14T13:10:21.116Z,94020.67
2023-04-14T13:12:49.248Z,94014.70
2023-04-14T13:16:12.415Z,94016.59
2023-04-14T13:18:06.179Z,94011.50
2023-04-14T13:20:34.168Z,94009.71
2023-04-14T13:23:02.314Z,94008.91
2023-04-14T13:25:30.303Z,94006.80
2023-04-14T13:27:58.279Z,94005.22
2023-04-14T13:30:26.431Z,94003.57
2023-04-14T13:32:57.928Z,94007.89
2023-04-14T13:35:25.971Z,94006.20
2023-04-14T13:37:53.991Z,94007.64
2023-04-14T13:40:22.230Z,94012.74
2023-04-14T13:42:50.220Z,94017.87
2023-04-14T13:45:18.156Z,94013.73
2023-04-14T13:47:49.353Z,94014.09
2023-04-14T13:50:18.878Z,94016.09
2023-04-14T13:52:47.218Z,94023.73
2023-04-14T13:55:15.331Z,94027.99
2023-04-14T13:57:43.344Z,94029.40
2023-04-14T14:00:11.861Z,94031.08
2023-04-14T14:02:40.209Z,94038.70
2023-04-14T14:05:11.485Z,94048.59
2023-04-14T14:07:39.874Z,94054.49
2023-04-14T14:10:10.767Z,94066.48
2023-04-14T14:12:39.113Z,94084.38
2023-04-14T14:15:07.814Z,94110.40
2023-04-14T14:17:37.385Z,94117.15
2023-04-14T14:20:06.377Z,94136.93
2023-04-14T14:22:34.362Z,94149.75
2023-04-14T14:25:17.772Z,94154.43
2023-04-14T14:27:48.521Z,94157.10
2023-04-14T14:30:16.627Z,94157.73
2023-04-14T14:32:44.615Z,94156.30
2023-04-14T14:35:13.077Z,94151.27
2023-04-14T14:37:42.996Z,94146.95
2023-04-14T14:40:11.453Z,94136.88
2023-04-14T14:42:39.432Z,94140.15
2023-04-14T14:45:07.904Z,94131.96
2023-04-14T14:47:36.477Z,94134.59
2023-04-14T14:50:08.250Z,94130.17
2023-04-14T14:52:36.696Z,94134.88
2023-04-14T14:55:05.116Z,94135.64
2023-04-14T14:57:34.195Z,94140.92
2023-04-14T15:00:02.201Z,94133.95
2023-04-14T15:02:30.324Z,94139.14
2023-04-14T15:04:58.432Z,94143.23
2023-04-14T15:07:26.322Z,94140.38
2023-04-14T15:09:54.197Z,94143.59
2023-04-14T15:12:22.523Z,94141.27
2023-04-14T15:14:50.416Z,94142.36
2023-04-14T15:17:18.427Z,94136.02
2023-04-14T15:19:46.405Z,94134.39
2023-04-14T15:22:14.963Z,94123.66
2023-04-14T15:24:43.114Z,94122.00
2023-04-14T15:27:11.526Z,94114.17
2023-04-14T15:29:39.591Z,94107.79
2023-04-14T15:32:07.743Z,94116.02
2023-04-14T15:34:35.736Z,94113.88
2023-04-14T15:37:03.780Z,94113.64
2023-04-14T15:39:31.700Z,94116.80
2023-04-14T15:41:59.585Z,94115.34
2023-04-14T15:44:27.589Z,94110.66
2023-04-14T15:46:55.682Z,94118.35
2023-04-14T15:49:23.556Z,94127.01
2023-04-14T15:51:52.960Z,94142.39
2023-04-14T15:54:20.868Z,94152.74
2023-04-14T15:56:51.346Z,94158.70
2023-04-14T15:59:20.238Z,94160.42
2023-04-14T16:01:48.334Z,94168.02
2023-04-14T16:04:16.462Z,94181.73
2023-04-14T16:06:45.555Z,94174.64
2023-04-14T16:09:14.242Z,94175.05
2023-04-14T16:11:42.181Z,94183.58
2023-04-14T16:14:10.211Z,94178.61
2023-04-14T16:16:38.623Z,94179.99
2023-04-14T16:19:06.606Z,94186.77
2023-04-14T16:21:34.561Z,94182.23
2023-04-14T16:24:02.919Z,94182.56
2023-04-14T16:26:31.217Z,94177.56
2023-04-14T16:28:59.343Z,94175.48
2023-04-14T16:31:27.767Z,94177.39
2023-04-14T16:33:56.315Z,94185.94
2023-04-14T16:36:26.467Z,94192.88
2023-04-14T16:38:54.594Z,94197.39
2023-04-14T16:41:22.682Z,94199.75
2023-04-14T16:43:50.767Z,94204.93
2023-04-14T16:46:18.619Z,94215.64
2023-04-14T16:48:46.714Z,94221.53
2023-04-14T16:51:14.662Z,94231.36
2023-04-14T16:53:44.193Z,94235.41
2023-04-14T16:56:13.195Z,94234.80
2023-04-14T16:58:41.242Z,94244.32
2023-04-14T17:01:09.694Z,94246.02
2023-04-14T17:03:38.269Z,94246.25
2023-04-14T17:06:06.627Z,94234.91
2023-04-14T17:08:34.724Z,94234.11
2023-04-14T17:11:02.698Z,94234.75
2023-04-14T17:13:30.835Z,94243.13
2023-04-14T17:16:08.097Z,94237.34
2023-04-14T17:18:38.169Z,94234.69
2023-04-14T17:21:06.435Z,94234.52
2023-04-14T17:23:35.772Z,94236.33
2023-04-14T17:26:04.521Z,94237.20
2023-04-14T17:28:34.468Z,94232.32
2023-04-14T17:31:10.302Z,94234.09
2023-04-14T17:33:38.546Z,94239.16
2023-04-14T17:36:08.120Z,94242.16
2023-04-14T17:38:38.765Z,94230.51
2023-04-14T17:41:08.783Z,94243.36
2023-04-14T17:43:39.120Z,94246.41
2023-04-14T17:46:07.828Z,94252.06
2023-04-14T17:48:35.775Z,94257.17
2023-04-14T17:51:04.885Z,94248.58
2023-04-14T17:53:32.940Z,94255.35
2023-04-14T17:56:00.911Z,94270.96
2023-04-14T17:58:28.908Z,94285.95
2023-04-14T18:00:57.563Z,94293.06
2023-04-14T18:03:25.601Z,94293.40
2023-04-14T18:05:53.996Z,94298.74
2023-04-14T18:08:22.003Z,94291.36
2023-04-14T18:10:49.966Z,94279.05
2023-04-14T18:13:18.108Z,94279.88
2023-04-14T18:15:47.974Z,94277.95
2023-04-14T18:18:15.958Z,94279.36
2023-04-14T18:20:53.051Z,94284.77
2023-04-14T18:23:20.975Z,94295.52
2023-04-14T18:28:29.312Z,94300.79
2023-04-14T18:31:00.641Z,94299.28
2023-04-14T18:33:31.991Z,94302.81
2023-04-14T18:36:03.482Z,94301.81
2023-04-14T18:38:31.746Z,94302.86
2023-04-14T18:41:06.076Z,94308.48
2023-04-14T18:43:34.266Z,94318.36
2023-04-14T18:46:02.597Z,94317.22
2023-04-14T18:48:30.560Z,94316.13
2023-04-14T18:51:04.460Z,94324.88
2023-04-14T18:53:32.699Z,94322.17
2023-04-14T18:56:00.739Z,94318.77
2023-04-14T18:58:30.449Z,94315.94
2023-04-14T19:00:58.437Z,94310.77
2023-04-14T19:03:27.298Z,94317.35
2023-04-14T19:05:55.505Z,94330.96
2023-04-14T19:08:23.495Z,94337.80
2023-04-14T19:10:51.802Z,94339.48
2023-04-14T19:13:19.852Z,94333.35
2023-04-14T19:15:47.907Z,94335.02
2023-04-14T19:18:17.284Z,94338.99
2023-04-14T19:20:47.605Z,94340.41
2023-04-14T19:23:15.723Z,94341.14
2023-04-14T19:25:43.568Z,94343.89
2023-04-14T19:28:16.626Z,94343.10
2023-04-14T19:30:45.903Z,94346.86
2023-04-14T19:33:14.086Z,94348.78
2023-04-14T19:35:44.370Z,94349.41
2023-04-14T19:38:12.379Z,94354.41
2023-04-14T19:40:45.904Z,94355.08
2023-04-14T19:43:15.154Z,94354.65
2023-04-14T19:45:53.149Z,94356.86
2023-04-14T19:48:24.043Z,94355.48
2023-04-14T19:50:54.846Z,94356.30
2023-04-14T19:53:23.650Z,94357.33
2023-04-14T19:55:52.127Z,94362.25
2023-04-14T19:58:21.916Z,94354.91
2023-04-14T20:00:52.294Z,94355.33
2023-04-14T20:03:20.591Z,94363.17
2023-04-14T20:05:52.873Z,94365.16
2023-04-14T20:08:21.845Z,94364.70
2023-04-14T20:10:54.300Z,94368.70
2023-04-14T20:13:23.257Z,94373.10
2023-04-14T20:15:54.192Z,94370.67
2023-04-14T20:18:26.501Z,94373.13
2023-04-14T20:20:57.610Z,94374.36
2023-04-14T20:23:25.853Z,94381.70
2023-04-14T20:25:53.789Z,94386.45
2023-04-14T20:28:26.169Z,94393.34
2023-04-14T20:30:54.818Z,94393.82
2023-04-14T20:33:23.354Z,94396.69
2023-04-14T20:35:54.600Z,94399.64
2023-04-14T20:38:23.092Z,94401.45
2023-04-14T20:40:51.218Z,94404.15
2023-04-14T20:43:19.291Z,94401.77
2023-04-14T20:45:49.677Z,94397.67
2023-04-14T20:48:18.601Z,94397.17
2023-04-14T20:50:49.727Z,94393.69
2023-04-14T20:53:18.557Z,94395.77
2023-04-14T20:55:46.651Z,94395.14
2023-04-14T20:58:15.065Z,94397.27
2023-04-14T21:00:43.487Z,94407.28
2023-04-14T21:03:11.846Z,94411.58
2023-04-14T21:05:40.666Z,94418.00
2023-04-14T21:08:09.759Z,94426.88
2023-04-14T21:11:02.169Z,94428.30
2023-04-14T21:15:27.107Z,94433.63
2023-04-14T21:16:14.835Z,94430.08
2023-04-14T21:18:42.975Z,94430.33
2023-04-14T21:21:11.695Z,94429.16
2023-04-14T21:23:39.735Z,94432.65
2023-04-14T21:26:08.183Z,94436.30
2023-04-14T21:28:37.086Z,94441.10
2023-04-14T21:31:05.458Z,94443.63
2023-04-14T21:33:33.719Z,94448.23
2023-04-14T21:36:01.928Z,94451.48
2023-04-14T21:38:30.174Z,94450.83
2023-04-14T21:40:58.167Z,94449.42
2023-04-14T21:43:26.038Z,94451.06
2023-04-14T21:45:54.482Z,94457.40
2023-04-14T21:48:23.649Z,94458.70
2023-04-14T21:50:52.059Z,94460.98
2023-04-14T21:53:20.871Z,94463.64
2023-04-14T21:56:05.334Z,94469.37
2023-04-14T21:58:37.700Z,94466.39
2023-04-14T22:01:05.697Z,94460.58
2023-04-14T22:03:33.879Z,94457.05
2023-04-14T22:06:02.851Z,94466.95
2023-04-14T22:08:30.794Z,94481.23
2023-04-14T22:10:58.627Z,94481.70
2023-04-14T22:13:26.638Z,94477.84
2023-04-14T22:15:55.240Z,94480.48
2023-04-14T22:18:23.872Z,94480.02
2023-04-14T22:20:51.738Z,94483.02
2023-04-14T22:23:20.267Z,94480.15
2023-04-14T22:25:48.184Z,94477.18
2023-04-14T22:28:16.463Z,94473.10
2023-04-14T22:30:44.858Z,94471.17
2023-04-14T22:33:12.883Z,94467.50
2023-04-14T22:35:41.721Z,94472.45
2023-04-14T22:38:09.583Z,94464.71
2023-04-14T22:40:37.557Z,94466.75
2023-04-14T22:43:08.915Z,94471.14
2023-04-14T22:45:37.710Z,94473.83
2023-04-14T22:48:07.123Z,94472.94
2023-04-14T22:50:35.847Z,94466.65
2023-04-14T22:53:03.866Z,94464.74
2023-04-14T22:55:32.302Z,94465.56
2023-04-14T22:58:00.211Z,94467.71
2023-04-14T23:00:28.686Z,94463.64
2023-04-14T23:02:59.468Z,94460.64
2023-04-14T23:05:28.037Z,94456.36
2023-04-14T23:07:55.911Z,94458.59
2023-04-14T23:10:24.130Z,94454.90
2023-04-14T23:12:52.100Z,94451.97
2023-04-14T23:15:20.715Z,94452.70
2023-04-14T23:17:48.629Z,94451.59
2023-04-14T23:20:16.576Z,94446.70
2023-04-14T23:22:45.509Z,94446.15
2023-04-14T23:25:13.560Z,94441.17
2023-04-14T23:27:41.544Z,94438.66
2023-04-14T23:30:10.404Z,94441.39
2023-04-14T23:32:38.636Z,94440.36
2023-04-14T23:35:07.015Z,94433.15
2023-04-14T23:37:35.372Z,94430.88
2023-04-14T23:40:08.208Z,94433.77
2023-04-14T23:42:36.171Z,94430.98
2023-04-14T23:45:05.331Z,94434.20
2023-04-14T23:47:33.326Z,94432.13
2023-04-14T23:50:01.280Z,94426.63
2023-04-14T23:52:29.183Z,94426.58
2023-04-14T23:54:57.470Z,94424.64
2023-04-14T23:57:25.364Z,94428.58
2023-04-14T23:59:53.216Z,94430.03
